CCM200 EIDW-LFOB
Flight info
| Callsign | CCM200 |
|---|---|
| Flight time | 1h 6m |
| Altitude | 31000 |
| Route | ENDEQ3J ENDEQ Q36 EPOXI L15 KEPAD L151 MID Y803 SFD M605 PETAX J150 VELOL |
| Aircraft | A20N/M-SDE2E3FGHIRWXY/LB1 |
Departure
| Time | 2026-04-26 18:57 |
|---|---|
| Airport | Dublin Airport (EIDW) |
Arrival
| Time | 2026-04-26 20:03 |
|---|---|
| Airport | Beauvais-Tillé airport (LFOB) |
| Time | Latitude | Longitude | Altitude | Speed | Heading |
|---|---|---|---|---|---|
| 2026-04-26 17:54 | 53.42750 | -6.24816 | 211 ft | 0 kts | 357° |
| 2026-04-26 18:43 | 53.42747 | -6.24815 | 211 ft | 2 kts | 357° |
| 2026-04-26 18:43 | 53.42730 | -6.24813 | 213 ft | 2 kts | 353° |
| 2026-04-26 18:43 | 53.42714 | -6.24809 | 211 ft | 2 kts | 343° |
| 2026-04-26 18:44 | 53.42700 | -6.24796 | 218 ft | 2 kts | 268° |
| 2026-04-26 18:44 | 53.42702 | -6.24780 | 215 ft | 0 kts | 236° |
| 2026-04-26 18:50 | 53.42696 | -6.24794 | 218 ft | 5 kts | 235° |
| 2026-04-26 18:50 | 53.42658 | -6.24866 | 210 ft | 9 kts | 212° |
| 2026-04-26 18:50 | 53.42585 | -6.24880 | 213 ft | 12 kts | 199° |
| 2026-04-26 18:50 | 53.42566 | -6.24997 | 213 ft | 13 kts | 309° |
| 2026-04-26 18:51 | 53.42654 | -6.25074 | 212 ft | 15 kts | 337° |
| 2026-04-26 18:51 | 53.42745 | -6.25139 | 210 ft | 15 kts | 335° |
| 2026-04-26 18:51 | 53.42829 | -6.25264 | 211 ft | 17 kts | 326° |
| 2026-04-26 18:51 | 53.42909 | -6.25326 | 212 ft | 15 kts | 336° |
| 2026-04-26 18:52 | 53.43034 | -6.25418 | 211 ft | 22 kts | 337° |
| 2026-04-26 18:52 | 53.43130 | -6.25486 | 213 ft | 22 kts | 337° |
| 2026-04-26 18:52 | 53.43272 | -6.25587 | 212 ft | 16 kts | 336° |
| 2026-04-26 18:52 | 53.43368 | -6.25654 | 215 ft | 12 kts | 351° |
| 2026-04-26 18:53 | 53.43403 | -6.25574 | 216 ft | 10 kts | 83° |
| 2026-04-26 18:53 | 53.43401 | -6.25435 | 218 ft | 13 kts | 94° |
| 2026-04-26 18:53 | 53.43391 | -6.25267 | 210 ft | 16 kts | 96° |
| 2026-04-26 18:53 | 53.43379 | -6.25072 | 211 ft | 18 kts | 96° |
| 2026-04-26 18:54 | 53.43367 | -6.24852 | 211 ft | 20 kts | 95° |
| 2026-04-26 18:54 | 53.43356 | -6.24659 | 213 ft | 12 kts | 95° |
| 2026-04-26 18:54 | 53.43405 | -6.24563 | 216 ft | 9 kts | 5° |
| 2026-04-26 18:54 | 53.43407 | -6.24563 | 215 ft | 0 kts | 5° |
| 2026-04-26 18:55 | 53.43441 | -6.24557 | 212 ft | 9 kts | 6° |
| 2026-04-26 18:55 | 53.43510 | -6.24568 | 213 ft | 11 kts | 320° |
| 2026-04-26 18:56 | 53.43525 | -6.24628 | 215 ft | 0 kts | 279° |
| 2026-04-26 18:56 | 53.43526 | -6.24636 | 213 ft | 4 kts | 279° |
| 2026-04-26 18:56 | 53.43549 | -6.25048 | 211 ft | 72 kts | 275° |
| 2026-04-26 18:56 | 53.43616 | -6.26258 | 217 ft | 133 kts | 275° |
| 2026-04-26 18:57 | 53.43704 | -6.27980 | 519 ft | 150 kts | 274° |
| 2026-04-26 18:57 | 53.43814 | -6.29160 | 908 ft | 153 kts | 287° |
| 2026-04-26 18:57 | 53.44076 | -6.31400 | 1905 ft | 146 kts | 276° |
| 2026-04-26 18:57 | 53.44434 | -6.33042 | 2340 ft | 161 kts | 311° |
| 2026-04-26 18:58 | 53.45337 | -6.34313 | 2803 ft | 179 kts | 323° |
| 2026-04-26 18:58 | 53.46537 | -6.35235 | 3258 ft | 205 kts | 347° |
| 2026-04-26 18:58 | 53.48012 | -6.35231 | 4014 ft | 217 kts | 5° |
| 2026-04-26 18:58 | 53.49524 | -6.35021 | 4971 ft | 221 kts | 2° |
| 2026-04-26 18:59 | 53.51044 | -6.34557 | 5862 ft | 227 kts | 25° |
| 2026-04-26 18:59 | 53.52243 | -6.32853 | 6783 ft | 231 kts | 57° |
| 2026-04-26 18:59 | 53.52741 | -6.30296 | 7615 ft | 236 kts | 88° |
| 2026-04-26 18:59 | 53.52725 | -6.27452 | 8246 ft | 254 kts | 93° |
| 2026-04-26 19:00 | 53.52611 | -6.24350 | 8723 ft | 278 kts | 94° |
| 2026-04-26 19:00 | 53.52490 | -6.21002 | 8987 ft | 292 kts | 93° |
| 2026-04-26 19:00 | 53.52397 | -6.17585 | 9093 ft | 293 kts | 92° |
| 2026-04-26 19:00 | 53.52325 | -6.14158 | 9198 ft | 294 kts | 92° |
| 2026-04-26 19:01 | 53.52265 | -6.10720 | 9337 ft | 295 kts | 92° |
| 2026-04-26 19:01 | 53.52147 | -6.07264 | 9275 ft | 295 kts | 98° |
| 2026-04-26 19:01 | 53.51714 | -6.03884 | 9393 ft | 297 kts | 104° |
| 2026-04-26 19:01 | 53.51218 | -6.00492 | 10037 ft | 300 kts | 104° |
| 2026-04-26 19:02 | 53.50725 | -5.97055 | 10838 ft | 310 kts | 104° |
| 2026-04-26 19:02 | 53.50200 | -5.93400 | 11192 ft | 334 kts | 104° |
| 2026-04-26 19:02 | 53.49638 | -5.89495 | 11631 ft | 351 kts | 104° |
| 2026-04-26 19:02 | 53.49255 | -5.86845 | 12157 ft | 354 kts | 104° |
| 2026-04-26 19:03 | 53.48484 | -5.81416 | 13282 ft | 361 kts | 102° |
| 2026-04-26 19:03 | 53.47959 | -5.77268 | 14107 ft | 365 kts | 101° |
| 2026-04-26 19:03 | 53.47449 | -5.73068 | 14871 ft | 369 kts | 101° |
| 2026-04-26 19:03 | 53.46932 | -5.68837 | 15647 ft | 372 kts | 101° |
| 2026-04-26 19:04 | 53.46402 | -5.64571 | 16408 ft | 375 kts | 101° |
| 2026-04-26 19:04 | 53.45862 | -5.60269 | 17150 ft | 379 kts | 101° |
| 2026-04-26 19:04 | 53.45311 | -5.55924 | 17894 ft | 382 kts | 101° |
| 2026-04-26 19:04 | 53.44763 | -5.51546 | 18615 ft | 385 kts | 99° |
| 2026-04-26 19:05 | 53.44371 | -5.42531 | 19848 ft | 391 kts | 91° |
| 2026-04-26 19:05 | 53.44267 | -5.37943 | 20458 ft | 395 kts | 91° |
| 2026-04-26 19:05 | 53.44157 | -5.33377 | 21054 ft | 399 kts | 91° |
| 2026-04-26 19:06 | 53.44041 | -5.28706 | 21655 ft | 403 kts | 91° |
| 2026-04-26 19:06 | 53.43921 | -5.23992 | 22251 ft | 406 kts | 91° |
| 2026-04-26 19:06 | 53.43797 | -5.19233 | 22840 ft | 410 kts | 92° |
| 2026-04-26 19:06 | 53.43671 | -5.14430 | 23422 ft | 414 kts | 92° |
| 2026-04-26 19:07 | 53.43527 | -5.09578 | 23946 ft | 419 kts | 93° |
| 2026-04-26 19:07 | 53.43371 | -5.04680 | 24444 ft | 422 kts | 93° |
| 2026-04-26 19:07 | 53.43213 | -4.99756 | 24914 ft | 425 kts | 94° |
| 2026-04-26 19:07 | 53.43053 | -4.94788 | 25386 ft | 428 kts | 94° |
| 2026-04-26 19:08 | 53.42890 | -4.89782 | 25847 ft | 431 kts | 94° |
| 2026-04-26 19:08 | 53.42724 | -4.84739 | 26299 ft | 435 kts | 94° |
| 2026-04-26 19:08 | 53.42555 | -4.79664 | 26736 ft | 438 kts | 94° |
| 2026-04-26 19:08 | 53.42384 | -4.74547 | 27168 ft | 441 kts | 94° |
| 2026-04-26 19:09 | 53.42210 | -4.69394 | 27591 ft | 444 kts | 95° |
| 2026-04-26 19:09 | 53.42032 | -4.64205 | 27992 ft | 447 kts | 95° |
| 2026-04-26 19:09 | 53.41851 | -4.58980 | 28349 ft | 451 kts | 95° |
| 2026-04-26 19:09 | 53.41665 | -4.53714 | 28746 ft | 454 kts | 95° |
| 2026-04-26 19:10 | 53.41477 | -4.48426 | 29140 ft | 456 kts | 95° |
| 2026-04-26 19:10 | 53.41285 | -4.43102 | 29499 ft | 459 kts | 95° |
| 2026-04-26 19:10 | 53.41089 | -4.37750 | 29861 ft | 462 kts | 95° |
| 2026-04-26 19:10 | 53.40889 | -4.32362 | 30216 ft | 464 kts | 96° |
| 2026-04-26 19:11 | 53.40687 | -4.26947 | 30535 ft | 467 kts | 96° |
| 2026-04-26 19:11 | 53.40480 | -4.21502 | 30840 ft | 469 kts | 96° |
| 2026-04-26 19:11 | 53.40270 | -4.16028 | 31121 ft | 472 kts | 96° |
| 2026-04-26 19:12 | 53.39839 | -4.04994 | 31270 ft | 478 kts | 96° |
| 2026-04-26 19:12 | 53.39397 | -3.93911 | 31273 ft | 476 kts | 96° |
| 2026-04-26 19:13 | 53.38943 | -3.82843 | 31273 ft | 476 kts | 96° |
| 2026-04-26 19:13 | 53.38478 | -3.71787 | 31273 ft | 476 kts | 97° |
| 2026-04-26 19:14 | 53.37176 | -3.61020 | 31277 ft | 470 kts | 111° |
| 2026-04-26 19:14 | 53.34684 | -3.50953 | 31256 ft | 467 kts | 119° |
| 2026-04-26 19:15 | 53.31312 | -3.41775 | 31260 ft | 461 kts | 132° |
| 2026-04-26 19:15 | 53.27109 | -3.33737 | 31267 ft | 459 kts | 135° |
| 2026-04-26 19:16 | 53.22871 | -3.25735 | 31270 ft | 460 kts | 135° |
| 2026-04-26 19:16 | 53.18624 | -3.17725 | 31282 ft | 461 kts | 136° |
| 2026-04-26 19:17 | 53.14367 | -3.09728 | 31280 ft | 461 kts | 136° |
| 2026-04-26 19:17 | 53.10094 | -3.01729 | 31261 ft | 462 kts | 136° |
| 2026-04-26 19:18 | 53.05813 | -2.93738 | 31267 ft | 463 kts | 136° |
| 2026-04-26 19:18 | 53.01518 | -2.85747 | 31271 ft | 464 kts | 136° |
| 2026-04-26 19:19 | 52.97209 | -2.77757 | 31251 ft | 465 kts | 136° |
| 2026-04-26 19:19 | 52.92895 | -2.69781 | 31276 ft | 465 kts | 136° |
| 2026-04-26 19:20 | 52.88604 | -2.61876 | 31278 ft | 465 kts | 136° |
| 2026-04-26 19:20 | 52.84276 | -2.53928 | 31280 ft | 465 kts | 136° |
| 2026-04-26 19:21 | 52.79663 | -2.46530 | 31251 ft | 459 kts | 147° |
| 2026-04-26 19:21 | 52.74407 | -2.40610 | 31254 ft | 457 kts | 151° |
| 2026-04-26 19:22 | 52.69113 | -2.34799 | 31275 ft | 457 kts | 151° |
| 2026-04-26 19:22 | 52.63817 | -2.28983 | 31283 ft | 458 kts | 151° |
| 2026-04-26 19:23 | 52.58515 | -2.23175 | 31283 ft | 458 kts | 151° |
| 2026-04-26 19:23 | 52.53205 | -2.17376 | 31282 ft | 458 kts | 151° |
| 2026-04-26 19:24 | 52.47894 | -2.11594 | 31274 ft | 456 kts | 151° |
| 2026-04-26 19:24 | 52.39964 | -2.02991 | 31280 ft | 456 kts | 151° |
| 2026-04-26 19:25 | 52.36425 | -1.99162 | 31278 ft | 456 kts | 151° |
| 2026-04-26 19:25 | 52.29330 | -1.91516 | 31271 ft | 460 kts | 151° |
| 2026-04-26 19:26 | 52.23994 | -1.85782 | 31267 ft | 459 kts | 151° |
| 2026-04-26 19:26 | 52.18658 | -1.80065 | 31273 ft | 459 kts | 151° |
| 2026-04-26 19:27 | 52.13321 | -1.74364 | 31272 ft | 459 kts | 151° |
| 2026-04-26 19:27 | 52.07983 | -1.68677 | 31269 ft | 459 kts | 151° |
| 2026-04-26 19:28 | 52.02680 | -1.63032 | 31263 ft | 458 kts | 151° |
| 2026-04-26 19:28 | 51.97346 | -1.57379 | 31267 ft | 458 kts | 151° |
| 2026-04-26 19:29 | 51.91999 | -1.51743 | 31267 ft | 458 kts | 151° |
| 2026-04-26 19:29 | 51.86652 | -1.46122 | 31266 ft | 458 kts | 151° |
| 2026-04-26 19:30 | 51.81257 | -1.40461 | 31265 ft | 464 kts | 151° |
| 2026-04-26 19:30 | 51.76737 | -1.35725 | 31266 ft | 462 kts | 150° |
| 2026-04-26 19:31 | 51.70467 | -1.29179 | 31267 ft | 462 kts | 151° |
| 2026-04-26 19:31 | 51.65070 | -1.23562 | 31266 ft | 462 kts | 151° |
| 2026-04-26 19:32 | 51.59665 | -1.17953 | 31265 ft | 462 kts | 151° |
| 2026-04-26 19:32 | 51.54264 | -1.12364 | 31264 ft | 462 kts | 151° |
| 2026-04-26 19:33 | 51.48858 | -1.06786 | 31270 ft | 462 kts | 151° |
| 2026-04-26 19:33 | 51.43453 | -1.01224 | 31270 ft | 462 kts | 151° |
| 2026-04-26 19:34 | 51.38043 | -0.95673 | 31273 ft | 462 kts | 151° |
| 2026-04-26 19:34 | 51.32580 | -0.90088 | 31254 ft | 467 kts | 150° |
| 2026-04-26 19:35 | 51.27997 | -0.85410 | 31261 ft | 466 kts | 150° |
| 2026-04-26 19:35 | 51.21638 | -0.78939 | 31267 ft | 466 kts | 150° |
| 2026-04-26 19:36 | 51.17977 | -0.75224 | 31258 ft | 466 kts | 150° |
| 2026-04-26 19:36 | 51.11583 | -0.68753 | 31276 ft | 466 kts | 151° |
| 2026-04-26 19:37 | 51.06224 | -0.62586 | 31268 ft | 471 kts | 139° |
| 2026-04-26 19:37 | 51.02278 | -0.54580 | 31279 ft | 476 kts | 123° |
| 2026-04-26 19:38 | 50.98822 | -0.45609 | 31260 ft | 476 kts | 124° |
| 2026-04-26 19:38 | 50.95342 | -0.36665 | 31267 ft | 476 kts | 124° |
| 2026-04-26 19:39 | 50.91848 | -0.27739 | 31274 ft | 476 kts | 124° |
| 2026-04-26 19:39 | 50.88345 | -0.18825 | 31260 ft | 477 kts | 124° |
| 2026-04-26 19:40 | 50.84836 | -0.09928 | 31271 ft | 477 kts | 124° |
| 2026-04-26 19:40 | 50.81321 | -0.01040 | 31278 ft | 477 kts | 124° |
| 2026-04-26 19:41 | 50.77761 | 0.07814 | 31268 ft | 476 kts | 127° |
| 2026-04-26 19:41 | 50.74204 | 0.14407 | 31271 ft | 473 kts | 139° |
| 2026-04-26 19:42 | 50.68301 | 0.22147 | 31278 ft | 472 kts | 143° |
| 2026-04-26 19:42 | 50.63195 | 0.28662 | 31277 ft | 472 kts | 143° |
| 2026-04-26 19:43 | 50.58116 | 0.35134 | 31144 ft | 473 kts | 143° |
| 2026-04-26 19:43 | 50.55561 | 0.38384 | 30883 ft | 472 kts | 143° |
| 2026-04-26 19:43 | 50.53001 | 0.41633 | 30242 ft | 473 kts | 143° |
| 2026-04-26 19:44 | 50.50430 | 0.44891 | 29226 ft | 477 kts | 143° |
| 2026-04-26 19:44 | 50.47849 | 0.48158 | 28398 ft | 475 kts | 143° |
| 2026-04-26 19:44 | 50.45297 | 0.51385 | 27887 ft | 466 kts | 143° |
| 2026-04-26 19:44 | 50.42797 | 0.54545 | 27391 ft | 458 kts | 143° |
| 2026-04-26 19:45 | 50.40331 | 0.57654 | 26804 ft | 452 kts | 143° |
| 2026-04-26 19:45 | 50.37895 | 0.60720 | 26216 ft | 447 kts | 143° |
| 2026-04-26 19:45 | 50.35484 | 0.63750 | 25633 ft | 442 kts | 143° |
| 2026-04-26 19:45 | 50.33098 | 0.66746 | 25039 ft | 438 kts | 143° |
| 2026-04-26 19:46 | 50.30733 | 0.69711 | 24436 ft | 434 kts | 143° |
| 2026-04-26 19:46 | 50.28384 | 0.72652 | 23849 ft | 431 kts | 143° |
| 2026-04-26 19:46 | 50.26058 | 0.75561 | 23246 ft | 425 kts | 143° |
| 2026-04-26 19:46 | 50.23794 | 0.78389 | 22676 ft | 420 kts | 143° |
| 2026-04-26 19:47 | 50.21529 | 0.81214 | 22114 ft | 414 kts | 143° |
| 2026-04-26 19:47 | 50.20011 | 0.83107 | 21731 ft | 411 kts | 143° |
| 2026-04-26 19:47 | 50.17289 | 0.87173 | 20970 ft | 408 kts | 133° |
| 2026-04-26 19:47 | 50.15435 | 0.90501 | 20409 ft | 405 kts | 133° |
| 2026-04-26 19:48 | 50.13594 | 0.93793 | 19842 ft | 402 kts | 133° |
| 2026-04-26 19:48 | 50.11759 | 0.97061 | 19280 ft | 399 kts | 133° |
| 2026-04-26 19:48 | 50.09936 | 1.00301 | 18676 ft | 398 kts | 133° |
| 2026-04-26 19:48 | 50.08119 | 1.03520 | 18115 ft | 394 kts | 133° |
| 2026-04-26 19:49 | 50.06321 | 1.06705 | 17556 ft | 389 kts | 133° |
| 2026-04-26 19:49 | 50.04541 | 1.09852 | 16996 ft | 386 kts | 133° |
| 2026-04-26 19:49 | 50.02778 | 1.12967 | 16442 ft | 382 kts | 133° |
| 2026-04-26 19:49 | 50.01029 | 1.16052 | 15892 ft | 378 kts | 133° |
| 2026-04-26 19:50 | 49.99293 | 1.19110 | 15357 ft | 375 kts | 133° |
| 2026-04-26 19:50 | 49.97572 | 1.22139 | 14828 ft | 372 kts | 133° |
| 2026-04-26 19:50 | 49.95865 | 1.25139 | 14300 ft | 369 kts | 133° |
| 2026-04-26 19:50 | 49.94080 | 1.27965 | 13819 ft | 363 kts | 140° |
| 2026-04-26 19:51 | 49.92118 | 1.30304 | 13536 ft | 354 kts | 147° |
| 2026-04-26 19:51 | 49.90014 | 1.32314 | 12903 ft | 355 kts | 150° |
| 2026-04-26 19:51 | 49.87931 | 1.34262 | 12795 ft | 348 kts | 150° |
| 2026-04-26 19:51 | 49.85848 | 1.36212 | 12686 ft | 351 kts | 150° |
| 2026-04-26 19:52 | 49.83754 | 1.38176 | 12577 ft | 352 kts | 150° |
| 2026-04-26 19:52 | 49.81667 | 1.40135 | 12463 ft | 350 kts | 150° |
| 2026-04-26 19:52 | 49.79591 | 1.42090 | 12366 ft | 346 kts | 149° |
| 2026-04-26 19:52 | 49.77586 | 1.43994 | 12258 ft | 331 kts | 149° |
| 2026-04-26 19:53 | 49.75661 | 1.45821 | 12153 ft | 317 kts | 149° |
| 2026-04-26 19:53 | 49.73813 | 1.47573 | 11990 ft | 306 kts | 149° |
| 2026-04-26 19:53 | 49.72022 | 1.49262 | 11549 ft | 305 kts | 149° |
| 2026-04-26 19:53 | 49.70201 | 1.50971 | 11056 ft | 307 kts | 149° |
| 2026-04-26 19:54 | 49.68373 | 1.52685 | 10569 ft | 308 kts | 149° |
| 2026-04-26 19:54 | 49.66536 | 1.54398 | 10087 ft | 308 kts | 149° |
| 2026-04-26 19:54 | 49.64672 | 1.56122 | 9557 ft | 309 kts | 149° |
| 2026-04-26 19:54 | 49.62828 | 1.57821 | 9042 ft | 309 kts | 149° |
| 2026-04-26 19:55 | 49.60983 | 1.59514 | 8522 ft | 308 kts | 149° |
| 2026-04-26 19:55 | 49.59166 | 1.61174 | 8021 ft | 305 kts | 149° |
| 2026-04-26 19:55 | 49.57361 | 1.62816 | 7523 ft | 297 kts | 149° |
| 2026-04-26 19:55 | 49.55598 | 1.64414 | 7038 ft | 290 kts | 149° |
| 2026-04-26 19:56 | 49.53873 | 1.65970 | 6546 ft | 284 kts | 149° |
| 2026-04-26 19:56 | 49.52183 | 1.67493 | 6041 ft | 279 kts | 149° |
| 2026-04-26 19:56 | 49.50571 | 1.69111 | 5526 ft | 273 kts | 136° |
| 2026-04-26 19:56 | 49.49525 | 1.71471 | 5031 ft | 267 kts | 109° |
| 2026-04-26 19:57 | 49.49315 | 1.74253 | 4522 ft | 262 kts | 81° |
| 2026-04-26 19:57 | 49.49802 | 1.76920 | 4020 ft | 257 kts | 71° |
| 2026-04-26 19:57 | 49.50570 | 1.79372 | 3529 ft | 254 kts | 56° |
| 2026-04-26 19:57 | 49.51671 | 1.81719 | 3259 ft | 239 kts | 54° |
| 2026-04-26 19:58 | 49.52529 | 1.83545 | 3159 ft | 224 kts | 54° |
| 2026-04-26 19:58 | 49.53423 | 1.85448 | 3057 ft | 215 kts | 54° |
| 2026-04-26 19:58 | 49.54277 | 1.87270 | 2996 ft | 203 kts | 55° |
| 2026-04-26 19:58 | 49.54663 | 1.89214 | 3001 ft | 183 kts | 100° |
| 2026-04-26 19:59 | 49.54032 | 1.90590 | 3690 ft | 160 kts | 137° |
| 2026-04-26 19:59 | 49.53294 | 1.92053 | 3334 ft | 178 kts | 112° |
| 2026-04-26 19:59 | 49.52823 | 1.93760 | 2960 ft | 167 kts | 112° |
| 2026-04-26 19:59 | 49.52306 | 1.95287 | 2708 ft | 155 kts | 117° |
| 2026-04-26 20:00 | 49.51759 | 1.96649 | 2480 ft | 145 kts | 119° |
| 2026-04-26 20:00 | 49.51217 | 1.97938 | 2287 ft | 139 kts | 119° |
| 2026-04-26 20:00 | 49.50709 | 1.99120 | 2109 ft | 129 kts | 119° |
| 2026-04-26 20:00 | 49.50210 | 2.00278 | 1931 ft | 129 kts | 119° |
| 2026-04-26 20:01 | 49.49718 | 2.01414 | 1757 ft | 129 kts | 119° |
| 2026-04-26 20:01 | 49.49215 | 2.02576 | 1584 ft | 131 kts | 119° |
| 2026-04-26 20:01 | 49.48703 | 2.03756 | 1402 ft | 131 kts | 119° |
| 2026-04-26 20:01 | 49.48194 | 2.04931 | 1221 ft | 133 kts | 120° |
| 2026-04-26 20:02 | 49.47684 | 2.06107 | 1043 ft | 135 kts | 121° |
| 2026-04-26 20:02 | 49.47155 | 2.07327 | 862 ft | 135 kts | 121° |
| 2026-04-26 20:02 | 49.46642 | 2.08508 | 681 ft | 133 kts | 121° |
| 2026-04-26 20:02 | 49.46296 | 2.09309 | 574 ft | 133 kts | 120° |
| 2026-04-26 20:03 | 49.45611 | 2.10870 | 368 ft | 133 kts | 121° |
| 2026-04-26 20:03 | 49.45180 | 2.11890 | 334 ft | 73 kts | 123° |
| 2026-04-26 20:03 | 49.45058 | 2.12165 | 330 ft | 4 kts | 122° |
| 2026-04-26 20:03 | 49.45036 | 2.12312 | 327 ft | 21 kts | 95° |
| 2026-04-26 20:04 | 49.45032 | 2.12457 | 327 ft | 14 kts | 92° |
| 2026-04-26 20:04 | 49.45018 | 2.12678 | 324 ft | 27 kts | 105° |
| 2026-04-26 20:04 | 49.44917 | 2.12954 | 316 ft | 32 kts | 123° |
| 2026-04-26 20:04 | 49.44800 | 2.13223 | 310 ft | 21 kts | 124° |
| 2026-04-26 20:05 | 49.44668 | 2.13258 | 306 ft | 23 kts | 225° |
| 2026-04-26 20:05 | 49.44681 | 2.13048 | 311 ft | 20 kts | 294° |
| 2026-04-26 20:05 | 49.44768 | 2.12831 | 316 ft | 31 kts | 304° |
| 2026-04-26 20:05 | 49.44922 | 2.12487 | 323 ft | 46 kts | 303° |
| 2026-04-26 20:06 | 49.45100 | 2.12076 | 332 ft | 46 kts | 304° |
| 2026-04-26 20:06 | 49.45272 | 2.11680 | 335 ft | 45 kts | 304° |
| 2026-04-26 20:06 | 49.45415 | 2.11367 | 337 ft | 25 kts | 308° |
| 2026-04-26 20:06 | 49.45524 | 2.11394 | 353 ft | 17 kts | 39° |
| 2026-04-26 20:07 | 49.45616 | 2.11516 | 348 ft | 18 kts | 41° |
| 2026-04-26 20:07 | 49.45705 | 2.11610 | 346 ft | 13 kts | 4° |
| 2026-04-26 20:07 | 49.45776 | 2.11536 | 351 ft | 0 kts | 313° |
| 2026-04-26 20:08 | 49.45831 | 2.11517 | 347 ft | 13 kts | 13° |
| 2026-04-26 20:08 | 49.45908 | 2.11576 | 349 ft | 8 kts | 346° |
| 2026-04-26 20:08 | 49.45952 | 2.11521 | 357 ft | 0 kts | 314° |